Terminal Aerodrome Forecast
Issued by NWS Northern Indiana

Home | Current Version | Previous Version | Graphics & Text | Print | Product List | Glossary On
Versions: 1 2 3 4 5 6 7 8 9 10 11 12
000
FTUS43 KIWX 021130
TAFFWA
TAF
KFWA 021130Z 0212/0312 22004KT P6SM FEW050
      TEMPO 0212/0213 4SM BR
     FM021600 26009KT P6SM SCT035
     FM030000 25005KT P6SM SCT050=

USA.gov is the U.S. government's official web portal to all federal, state and local government web resources and services.